Bockoe — 5BRN4 — position and weather

sailwx.info

Track history (hours):
 
Tides and Currents Weather Stations Pressure Air Temp Water Temp Dewpoint Dewpoint Depression Visibility Wind Speed Wind Dir Waves Ship Positions

Bockoe

Last reported at 2018-Feb-21 04:59 UTC. Time now 2018-Feb-21 05:26 UTC.
Position N 59°48' E 025°27'.

Length 107 m; draft 3.9 m.

Type: Ship. MMSI: 212389000.

Date/timePositionNaut miles runAvg speedWind from/ knotsBaromVisibWave heightAir tempDewpointWater temp
2018-Feb-21 04:59N 59°48' E 025°27'610.8
2018-Feb-21 04:26N 59°48' E 025°15'511.0
2018-Feb-21 04:00N 59°47' E 025°06'510.4
2018-Feb-21 03:31N 59°46' E 024°56'510.9
2018-Feb-21 03:01N 59°45' E 024°45'611.0
2018-Feb-21 02:31N 59°44' E 024°34'510.5
2018-Feb-21 02:00N 59°43' E 024°24'610.5
2018-Feb-21 01:28N 59°41' E 024°13'510.4
2018-Feb-21 01:00N 59°40' E 024°04'510.5
2018-Feb-21 00:30N 59°38' E 023°55'611.3
2018-Feb-21 00:00N 59°36' E 023°44'611.6
2018-Feb-20 23:30N 59°34' E 023°34'611.8
2018-Feb-20 23:00N 59°32' E 023°23'911.5
2018-Feb-20 22:13N 59°29' E 023°06'28810.4
2018-Feb-19 18:32N 56°04' E 016°46'011.2
2018-Feb-19 18:30N 56°04' E 016°45'611.2
2018-Feb-19 18:01N 56°00' E 016°37'611.2
2018-Feb-19 17:30N 55°57' E 016°28'611.1
2018-Feb-19 17:00N 55°55' E 016°20'611.2
2018-Feb-19 16:31N 55°52' E 016°11'611.3
2018-Feb-19 16:00N 55°50' E 016°02'611.3
2018-Feb-19 15:31N 55°47' E 015°53'611.3
2018-Feb-19 15:00N 55°44' E 015°45'611.3
2018-Feb-19 14:30N 55°41' E 015°36'611.6
2018-Feb-19 14:01N 55°38' E 015°27'611.5
2018-Feb-19 13:31N 55°36' E 015°18'611.5
2018-Feb-19 12:59N 55°33' E 015°09'611.4
2018-Feb-19 12:25N 55°30' E 014°59'511.3
2018-Feb-19 12:00N 55°27' E 014°52'611.3
2018-Feb-19 11:30N 55°24' E 014°43'611.2
2018-Feb-19 11:00N 55°20' E 014°36'611.3
2018-Feb-19 10:30N 55°16' E 014°30'611.4
2018-Feb-19 09:57N 55°11' E 014°23'511.3
2018-Feb-19 09:31N 55°07' E 014°17'711.3
2018-Feb-19 08:52N 55°02' E 014°09'7310.9
2018-Feb-19 02:12N 54°30' E 012°16'311.0
2018-Feb-19 01:56N 54°27' E 012°14'410.2
2018-Feb-19 01:30N 54°25' E 012°07'611.1
2018-Feb-19 01:00N 54°25' E 011°58'811.1
2018-Feb-19 00:18N 54°25' E 011°44'311.2
2018-Feb-19 00:00N 54°27' E 011°39'511.1
2018-Feb-18 23:31N 54°29' E 011°30'510.7
2018-Feb-18 23:00N 54°31' E 011°22'510.4
2018-Feb-18 22:30N 54°33' E 011°13'5 9.9
2018-Feb-18 22:00N 54°35' E 011°06'510.9
2018-Feb-18 21:30N 54°34' E 010°56'510.9
2018-Feb-18 21:00N 54°34' E 010°47'510.8
2018-Feb-18 20:30N 54°33' E 010°38'510.8
2018-Feb-18 20:00N 54°32' E 010°28'24 6.8
2018-Feb-18 16:29N 54°22' E 009°51'4 8.2
2018-Feb-18 16:00N 54°20' E 009°45'4 7.9
2018-Feb-18 15:30N 54°17' E 009°40'4 7.3
2018-Feb-18 15:00N 54°14' E 009°37'4 8.3
2018-Feb-18 14:30N 54°12' E 009°32'4 8.8
2018-Feb-18 14:00N 54°10' E 009°25'2 4.2
2018-Feb-18 13:30N 54°09' E 009°22'4 6.8
2018-Feb-18 12:55N 54°05' E 009°19'3 1.8
2018-Feb-18 11:29N 54°03' E 009°18'1 1.2
2018-Feb-18 11:00N 54°02' E 009°18'4 7.5
2018-Feb-18 10:30N 53°58' E 009°16'4 8.4
2018-Feb-18 10:00N 53°55' E 009°12'2 4.7
2018-Feb-18 09:30N 53°54' E 009°09'0 1.0
2018-Feb-18 09:00N 53°53' E 009°08'3 5.9
2018-Feb-18 08:30N 53°52' E 009°03'4 8.4
2018-Feb-18 08:00N 53°51' E 008°57'4 7.5
2018-Feb-18 07:30N 53°50' E 008°50'3 6.5
2018-Feb-18 07:00N 53°51' E 008°45'3 6.3
2018-Feb-18 06:30N 53°54' E 008°42'3 6.3
2018-Feb-18 06:01N 53°56' E 008°39'4 7.3
2018-Feb-18 05:30N 53°58' E 008°33'5 9.0
2018-Feb-18 05:00N 53°59' E 008°26'5 8.9
2018-Feb-18 04:30N 53°60' E 008°18'510.5
2018-Feb-18 04:00N 53°59' E 008°09'4 7.3
2018-Feb-18 03:30N 53°59' E 008°03'98 7.6
2018-Feb-17 14:29N 53°33' E 005°23'34 9.0
2018-Feb-17 10:40N 53°14' E 004°35'2 9.3
2018-Feb-17 10:29N 53°13' E 004°33'5 9.8
2018-Feb-17 10:00N 53°08' E 004°30'5 9.5
2018-Feb-17 09:30N 53°04' E 004°26'5 9.5
2018-Feb-17 09:00N 52°60' E 004°23'5 9.6
2018-Feb-17 08:30N 52°56' E 004°19'510.1
2018-Feb-17 08:00N 52°51' E 004°15'610.6
2018-Feb-17 07:26N 52°46' E 004°09'611.9
2018-Feb-17 06:54N 52°42' E 004°01'1211.9
2018-Feb-17 05:51N 52°33' E 003°46'512.1
2018-Feb-17 05:28N 52°30' E 003°41'612.3
2018-Feb-17 04:59N 52°26' E 003°34'1812.6
2018-Feb-17 03:35N 52°13' E 003°15'613.0
2018-Feb-17 03:08N 52°08' E 003°09'213.0
2018-Feb-17 03:00N 52°07' E 003°07'613.0
2018-Feb-17 02:30N 52°02' E 002°60'611.3
2018-Feb-17 01:59N 51°57' E 003°04'611.6
2018-Feb-17 01:28N 51°52' E 003°09'511.4
2018-Feb-17 01:00N 51°47' E 003°13'511.1
2018-Feb-17 00:30N 51°42' E 003°17'510.7
2018-Feb-17 00:00N 51°37' E 003°22'510.4
2018-Feb-16 23:30N 51°33' E 003°25'5 9.5
2018-Feb-16 23:00N 51°29' E 003°30'4 9.0
2018-Feb-16 22:30N 51°26' E 003°35'5 9.3
2018-Feb-16 22:00N 51°24' E 003°42'611.4
2018-Feb-16 21:30N 51°21' E 003°50'611.5
2018-Feb-16 21:00N 51°24' E 003°57'3 6.2
2018-Feb-16 20:31N 51°24' E 004°02'611.2
2018-Feb-16 20:00N 51°24' E 004°11'611.7
2018-Feb-16 19:29N 51°19' E 004°16'5 9.8
2018-Feb-16 19:00N 51°15' E 004°20'2 3.2
2018-Feb-16 18:30N 51°14' E 004°23'0 0.0
2018-Feb-16 17:59N 51°14' E 004°23'0 0.0
2018-Feb-16 17:29N 51°14' E 004°23'0 0.0
2018-Feb-16 16:59N 51°14' E 004°23'1 3.1
2018-Feb-16 16:30N 51°13' E 004°23'5 9.2
2018-Feb-16 16:01N 51°09' E 004°20'2 3.3
2018-Feb-16 15:18N 51°07' E 004°18'1 4.2
2018-Feb-16 14:58N 51°06' E 004°19'1 0.0
2018-Feb-15 04:48N 51°05' E 004°21'0 0.0
2018-Feb-15 04:27N 51°05' E 004°21'0 0.0
2018-Feb-15 03:54N 51°05' E 004°21'0 0.0
2018-Feb-15 02:18N 51°05' E 004°21'0 0.0
2018-Feb-15 01:51N 51°05' E 004°21'0 0.0
2018-Feb-15 01:24N 51°05' E 004°21'0 0.0
2018-Feb-14 23:54N 51°05' E 004°21'0 0.0
2018-Feb-14 17:32N 51°05' E 004°21'0 0.0
2018-Feb-14 14:46N 51°05' E 004°21'1 1.1
2018-Feb-14 14:10N 51°06' E 004°20'1 6.0
2018-Feb-14 14:00N 51°06' E 004°19'1 2.1
2018-Feb-14 13:26N 51°07' E 004°18'3 7.9
2018-Feb-14 13:00N 51°11' E 004°20'4 8.4
2018-Feb-14 12:30N 51°14' E 004°23'4 7.9
2018-Feb-14 12:00N 51°17' E 004°19'510.7
2018-Feb-14 11:30N 51°22' E 004°14'4 7.7
2018-Feb-14 11:00N 51°22' E 004°08'5 9.9
2018-Feb-14 10:30N 51°25' E 004°02'5 9.2
2018-Feb-14 10:01N 51°22' E 003°56'611.0
2018-Feb-14 09:30N 51°21' E 003°47'611.0
2018-Feb-14 09:00N 51°25' E 003°41'5 9.6
2018-Feb-14 08:30N 51°27' E 003°33'611.1
2018-Feb-14 07:55N 51°31' E 003°26'710.7
2018-Feb-14 07:18N 51°37' E 003°22'71 8.1
2018-Feb-13 22:32N 52°47' E 003°45'1 9.6
2018-Feb-13 22:29N 52°47' E 003°45'4 9.2
2018-Feb-13 22:00N 52°51' E 003°50'5 9.7
2018-Feb-13 21:30N 52°54' E 003°55'5 9.7
2018-Feb-13 20:57N 52°58' E 004°01'175 8.7
2018-Feb-13 00:53N 53°57' E 008°39'512.7
2018-Feb-13 00:30N 53°53' E 008°43'510.4
2018-Feb-13 00:01N 53°51' E 008°50'5 9.8
2018-Feb-12 23:30N 53°51' E 008°59'5 9.0
2018-Feb-12 23:00N 53°53' E 009°06'2 3.7
2018-Feb-12 22:30N 53°54' E 009°09'0 0.0
2018-Feb-12 22:00N 53°54' E 009°09'1 1.5
2018-Feb-12 21:30N 53°54' E 009°10'3 5.7
2018-Feb-12 21:00N 53°56' E 009°13'4 8.3
2018-Feb-12 20:30N 53°60' E 009°17'4 7.4
2018-Feb-12 20:01N 54°03' E 009°18'4 8.2
2018-Feb-12 19:29N 54°07' E 009°20'4 8.0
2018-Feb-12 19:01N 54°10' E 009°25'4 8.4
2018-Feb-12 18:31N 54°11' E 009°31'4 8.0
2018-Feb-12 18:01N 54°14' E 009°36'4 8.0
2018-Feb-12 17:31N 54°17' E 009°40'4 7.8
2018-Feb-12 17:00N 54°20' E 009°44'33 5.3
2018-Feb-12 10:45N 54°34' E 010°36'2 9.4
2018-Feb-12 10:30N 54°35' E 010°40'5 9.3
2018-Feb-12 10:00N 54°35' E 010°48'5 9.4
2018-Feb-12 09:30N 54°36' E 010°56'510.1
2018-Feb-12 09:00N 54°36' E 011°05'5 9.9
2018-Feb-12 08:30N 54°35' E 011°13'510.6
2018-Feb-12 08:00N 54°33' E 011°21'510.1
2018-Feb-12 07:30N 54°31' E 011°29'5 9.6
2018-Feb-12 07:00N 54°29' E 011°37'5 8.9
2018-Feb-12 06:29N 54°27' E 011°44'4 8.9
2018-Feb-12 06:00N 54°26' E 011°51'5 9.3
2018-Feb-12 05:30N 54°26' E 011°59'91 9.0
2018-Feb-11 19:21N 55°13' E 014°15'4 9.2
2018-Feb-11 18:54N 55°16' E 014°20'5 9.1
2018-Feb-11 18:24N 55°19' E 014°25'6 9.0
2018-Feb-11 17:46N 55°24' E 014°32'2 8.8
2018-Feb-11 17:30N 55°25' E 014°35'6 9.2
2018-Feb-11 16:52N 55°30' E 014°42'3 9.3
2018-Feb-11 16:30N 55°32' E 014°46'6 9.2
2018-Feb-11 15:50N 55°36' E 014°54'4 8.8
2018-Feb-11 15:22N 55°39' E 014°59'4 9.6
2018-Feb-11 14:56N 55°37' E 015°05'4 8.7
2018-Feb-11 14:26N 55°39' E 015°12'4 8.9
2018-Feb-11 14:00N 55°41' E 015°18'4 9.0
2018-Feb-11 13:30N 55°43' E 015°25'5 9.1
2018-Feb-11 13:00N 55°45' E 015°32'5 9.1
2018-Feb-11 12:30N 55°47' E 015°39'5 9.3
2018-Feb-11 12:00N 55°49' E 015°46'5 9.4
2018-Feb-11 11:30N 55°51' E 015°54'5 9.6
2018-Feb-11 11:00N 55°53' E 016°02'5 9.3
2018-Feb-11 10:30N 55°55' E 016°10'2 4.9
2018-Feb-11 10:00N 55°57' E 016°12'2 4.7
2018-Feb-11 09:30N 55°59' E 016°14'4 8.6
2018-Feb-11 09:00N 56°01' E 016°20'510.2
2018-Feb-11 08:30N 56°03' E 016°28'510.8
2018-Feb-11 08:00N 56°06' E 016°37'510.7
2018-Feb-11 07:30N 56°09' E 016°45'  
Track history (hours):
 
Tides and Currents Weather Stations Pressure Air Temp Water Temp Dewpoint Dewpoint Depression Visibility Wind Speed Wind Dir Waves Ship Positions

Bockoe

Last reported at 2018-Feb-21 04:59 UTC. Time now 2018-Feb-21 05:26 UTC.
Position N 59°48' E 025°27'.

Length 107 m; draft 3.9 m.

Type: Ship. MMSI: 212389000.

Date/timePositionNaut miles runAvg speedWind from/ knotsBaromVisibWave heightAir tempDewpointWater temp
2018-Feb-21 04:59N 59°48' E 025°27'610.8
2018-Feb-21 04:26N 59°48' E 025°15'511.0
2018-Feb-21 04:00N 59°47' E 025°06'510.4
2018-Feb-21 03:31N 59°46' E 024°56'510.9
2018-Feb-21 03:01N 59°45' E 024°45'611.0
2018-Feb-21 02:31N 59°44' E 024°34'510.5
2018-Feb-21 02:00N 59°43' E 024°24'610.5
2018-Feb-21 01:28N 59°41' E 024°13'510.4
2018-Feb-21 01:00N 59°40' E 024°04'510.5
2018-Feb-21 00:30N 59°38' E 023°55'611.3
2018-Feb-21 00:00N 59°36' E 023°44'611.6
2018-Feb-20 23:30N 59°34' E 023°34'611.8
2018-Feb-20 23:00N 59°32' E 023°23'911.5
2018-Feb-20 22:13N 59°29' E 023°06'28810.4
2018-Feb-19 18:32N 56°04' E 016°46'011.2
2018-Feb-19 18:30N 56°04' E 016°45'611.2
2018-Feb-19 18:01N 56°00' E 016°37'611.2
2018-Feb-19 17:30N 55°57' E 016°28'611.1
2018-Feb-19 17:00N 55°55' E 016°20'611.2
2018-Feb-19 16:31N 55°52' E 016°11'611.3
2018-Feb-19 16:00N 55°50' E 016°02'611.3
2018-Feb-19 15:31N 55°47' E 015°53'611.3
2018-Feb-19 15:00N 55°44' E 015°45'611.3
2018-Feb-19 14:30N 55°41' E 015°36'611.6
2018-Feb-19 14:01N 55°38' E 015°27'611.5
2018-Feb-19 13:31N 55°36' E 015°18'611.5
2018-Feb-19 12:59N 55°33' E 015°09'611.4
2018-Feb-19 12:25N 55°30' E 014°59'511.3
2018-Feb-19 12:00N 55°27' E 014°52'611.3
2018-Feb-19 11:30N 55°24' E 014°43'611.2
2018-Feb-19 11:00N 55°20' E 014°36'611.3
2018-Feb-19 10:30N 55°16' E 014°30'611.4
2018-Feb-19 09:57N 55°11' E 014°23'511.3
2018-Feb-19 09:31N 55°07' E 014°17'711.3
2018-Feb-19 08:52N 55°02' E 014°09'7310.9
2018-Feb-19 02:12N 54°30' E 012°16'311.0
2018-Feb-19 01:56N 54°27' E 012°14'410.2
2018-Feb-19 01:30N 54°25' E 012°07'611.1
2018-Feb-19 01:00N 54°25' E 011°58'811.1
2018-Feb-19 00:18N 54°25' E 011°44'311.2
2018-Feb-19 00:00N 54°27' E 011°39'511.1
2018-Feb-18 23:31N 54°29' E 011°30'510.7
2018-Feb-18 23:00N 54°31' E 011°22'510.4
2018-Feb-18 22:30N 54°33' E 011°13'5 9.9
2018-Feb-18 22:00N 54°35' E 011°06'510.9
2018-Feb-18 21:30N 54°34' E 010°56'510.9
2018-Feb-18 21:00N 54°34' E 010°47'510.8
2018-Feb-18 20:30N 54°33' E 010°38'510.8
2018-Feb-18 20:00N 54°32' E 010°28'24 6.8
2018-Feb-18 16:29N 54°22' E 009°51'4 8.2
2018-Feb-18 16:00N 54°20' E 009°45'4 7.9
2018-Feb-18 15:30N 54°17' E 009°40'4 7.3
2018-Feb-18 15:00N 54°14' E 009°37'4 8.3
2018-Feb-18 14:30N 54°12' E 009°32'4 8.8
2018-Feb-18 14:00N 54°10' E 009°25'2 4.2
2018-Feb-18 13:30N 54°09' E 009°22'4 6.8
2018-Feb-18 12:55N 54°05' E 009°19'3 1.8
2018-Feb-18 11:29N 54°03' E 009°18'1 1.2
2018-Feb-18 11:00N 54°02' E 009°18'4 7.5
2018-Feb-18 10:30N 53°58' E 009°16'4 8.4
2018-Feb-18 10:00N 53°55' E 009°12'2 4.7
2018-Feb-18 09:30N 53°54' E 009°09'0 1.0
2018-Feb-18 09:00N 53°53' E 009°08'3 5.9
2018-Feb-18 08:30N 53°52' E 009°03'4 8.4
2018-Feb-18 08:00N 53°51' E 008°57'4 7.5
2018-Feb-18 07:30N 53°50' E 008°50'3 6.5
2018-Feb-18 07:00N 53°51' E 008°45'3 6.3
2018-Feb-18 06:30N 53°54' E 008°42'3 6.3
2018-Feb-18 06:01N 53°56' E 008°39'4 7.3
2018-Feb-18 05:30N 53°58' E 008°33'5 9.0
2018-Feb-18 05:00N 53°59' E 008°26'5 8.9
2018-Feb-18 04:30N 53°60' E 008°18'510.5
2018-Feb-18 04:00N 53°59' E 008°09'4 7.3
2018-Feb-18 03:30N 53°59' E 008°03'98 7.6
2018-Feb-17 14:29N 53°33' E 005°23'34 9.0
2018-Feb-17 10:40N 53°14' E 004°35'2 9.3
2018-Feb-17 10:29N 53°13' E 004°33'5 9.8
2018-Feb-17 10:00N 53°08' E 004°30'5 9.5
2018-Feb-17 09:30N 53°04' E 004°26'5 9.5
2018-Feb-17 09:00N 52°60' E 004°23'5 9.6
2018-Feb-17 08:30N 52°56' E 004°19'510.1
2018-Feb-17 08:00N 52°51' E 004°15'610.6
2018-Feb-17 07:26N 52°46' E 004°09'611.9
2018-Feb-17 06:54N 52°42' E 004°01'1211.9
2018-Feb-17 05:51N 52°33' E 003°46'512.1
2018-Feb-17 05:28N 52°30' E 003°41'612.3
2018-Feb-17 04:59N 52°26' E 003°34'1812.6
2018-Feb-17 03:35N 52°13' E 003°15'613.0
2018-Feb-17 03:08N 52°08' E 003°09'213.0
2018-Feb-17 03:00N 52°07' E 003°07'613.0
2018-Feb-17 02:30N 52°02' E 002°60'611.3
2018-Feb-17 01:59N 51°57' E 003°04'611.6
2018-Feb-17 01:28N 51°52' E 003°09'511.4
2018-Feb-17 01:00N 51°47' E 003°13'511.1
2018-Feb-17 00:30N 51°42' E 003°17'510.7
2018-Feb-17 00:00N 51°37' E 003°22'510.4
2018-Feb-16 23:30N 51°33' E 003°25'5 9.5
2018-Feb-16 23:00N 51°29' E 003°30'4 9.0
2018-Feb-16 22:30N 51°26' E 003°35'5 9.3
2018-Feb-16 22:00N 51°24' E 003°42'611.4
2018-Feb-16 21:30N 51°21' E 003°50'611.5
2018-Feb-16 21:00N 51°24' E 003°57'3 6.2
2018-Feb-16 20:31N 51°24' E 004°02'611.2
2018-Feb-16 20:00N 51°24' E 004°11'611.7
2018-Feb-16 19:29N 51°19' E 004°16'5 9.8
2018-Feb-16 19:00N 51°15' E 004°20'2 3.2
2018-Feb-16 18:30N 51°14' E 004°23'0 0.0
2018-Feb-16 17:59N 51°14' E 004°23'0 0.0
2018-Feb-16 17:29N 51°14' E 004°23'0 0.0
2018-Feb-16 16:59N 51°14' E 004°23'1 3.1
2018-Feb-16 16:30N 51°13' E 004°23'5 9.2
2018-Feb-16 16:01N 51°09' E 004°20'2 3.3
2018-Feb-16 15:18N 51°07' E 004°18'1 4.2
2018-Feb-16 14:58N 51°06' E 004°19'1 0.0
2018-Feb-15 04:48N 51°05' E 004°21'0 0.0
2018-Feb-15 04:27N 51°05' E 004°21'0 0.0
2018-Feb-15 03:54N 51°05' E 004°21'0 0.0
2018-Feb-15 02:18N 51°05' E 004°21'0 0.0
2018-Feb-15 01:51N 51°05' E 004°21'0 0.0
2018-Feb-15 01:24N 51°05' E 004°21'0 0.0
2018-Feb-14 23:54N 51°05' E 004°21'0 0.0
2018-Feb-14 17:32N 51°05' E 004°21'0 0.0
2018-Feb-14 14:46N 51°05' E 004°21'1 1.1
2018-Feb-14 14:10N 51°06' E 004°20'1 6.0
2018-Feb-14 14:00N 51°06' E 004°19'1 2.1
2018-Feb-14 13:26N 51°07' E 004°18'3 7.9
2018-Feb-14 13:00N 51°11' E 004°20'4 8.4
2018-Feb-14 12:30N 51°14' E 004°23'4 7.9
2018-Feb-14 12:00N 51°17' E 004°19'510.7
2018-Feb-14 11:30N 51°22' E 004°14'4 7.7
2018-Feb-14 11:00N 51°22' E 004°08'5 9.9
2018-Feb-14 10:30N 51°25' E 004°02'5 9.2
2018-Feb-14 10:01N 51°22' E 003°56'611.0
2018-Feb-14 09:30N 51°21' E 003°47'611.0
2018-Feb-14 09:00N 51°25' E 003°41'5 9.6
2018-Feb-14 08:30N 51°27' E 003°33'611.1
2018-Feb-14 07:55N 51°31' E 003°26'710.7
2018-Feb-14 07:18N 51°37' E 003°22'71 8.1
2018-Feb-13 22:32N 52°47' E 003°45'1 9.6
2018-Feb-13 22:29N 52°47' E 003°45'4 9.2
2018-Feb-13 22:00N 52°51' E 003°50'5 9.7
2018-Feb-13 21:30N 52°54' E 003°55'5 9.7
2018-Feb-13 20:57N 52°58' E 004°01'175 8.7
2018-Feb-13 00:53N 53°57' E 008°39'512.7
2018-Feb-13 00:30N 53°53' E 008°43'510.4
2018-Feb-13 00:01N 53°51' E 008°50'5 9.8
2018-Feb-12 23:30N 53°51' E 008°59'5 9.0
2018-Feb-12 23:00N 53°53' E 009°06'2 3.7
2018-Feb-12 22:30N 53°54' E 009°09'0 0.0
2018-Feb-12 22:00N 53°54' E 009°09'1 1.5
2018-Feb-12 21:30N 53°54' E 009°10'3 5.7
2018-Feb-12 21:00N 53°56' E 009°13'4 8.3
2018-Feb-12 20:30N 53°60' E 009°17'4 7.4
2018-Feb-12 20:01N 54°03' E 009°18'4 8.2
2018-Feb-12 19:29N 54°07' E 009°20'4 8.0
2018-Feb-12 19:01N 54°10' E 009°25'4 8.4
2018-Feb-12 18:31N 54°11' E 009°31'4 8.0
2018-Feb-12 18:01N 54°14' E 009°36'4 8.0
2018-Feb-12 17:31N 54°17' E 009°40'4 7.8
2018-Feb-12 17:00N 54°20' E 009°44'33 5.3
2018-Feb-12 10:45N 54°34' E 010°36'2 9.4
2018-Feb-12 10:30N 54°35' E 010°40'5 9.3
2018-Feb-12 10:00N 54°35' E 010°48'5 9.4
2018-Feb-12 09:30N 54°36' E 010°56'510.1
2018-Feb-12 09:00N 54°36' E 011°05'5 9.9
2018-Feb-12 08:30N 54°35' E 011°13'510.6
2018-Feb-12 08:00N 54°33' E 011°21'510.1
2018-Feb-12 07:30N 54°31' E 011°29'5 9.6
2018-Feb-12 07:00N 54°29' E 011°37'5 8.9
2018-Feb-12 06:29N 54°27' E 011°44'4 8.9
2018-Feb-12 06:00N 54°26' E 011°51'5 9.3
2018-Feb-12 05:30N 54°26' E 011°59'91 9.0
2018-Feb-11 19:21N 55°13' E 014°15'4 9.2
2018-Feb-11 18:54N 55°16' E 014°20'5 9.1
2018-Feb-11 18:24N 55°19' E 014°25'6 9.0
2018-Feb-11 17:46N 55°24' E 014°32'2 8.8
2018-Feb-11 17:30N 55°25' E 014°35'6 9.2
2018-Feb-11 16:52N 55°30' E 014°42'3 9.3
2018-Feb-11 16:30N 55°32' E 014°46'6 9.2
2018-Feb-11 15:50N 55°36' E 014°54'4 8.8
2018-Feb-11 15:22N 55°39' E 014°59'4 9.6
2018-Feb-11 14:56N 55°37' E 015°05'4 8.7
2018-Feb-11 14:26N 55°39' E 015°12'4 8.9
2018-Feb-11 14:00N 55°41' E 015°18'4 9.0
2018-Feb-11 13:30N 55°43' E 015°25'5 9.1
2018-Feb-11 13:00N 55°45' E 015°32'5 9.1
2018-Feb-11 12:30N 55°47' E 015°39'5 9.3
2018-Feb-11 12:00N 55°49' E 015°46'5 9.4
2018-Feb-11 11:30N 55°51' E 015°54'5 9.6
2018-Feb-11 11:00N 55°53' E 016°02'5 9.3
2018-Feb-11 10:30N 55°55' E 016°10'2 4.9
2018-Feb-11 10:00N 55°57' E 016°12'2 4.7
2018-Feb-11 09:30N 55°59' E 016°14'4 8.6
2018-Feb-11 09:00N 56°01' E 016°20'510.2
2018-Feb-11 08:30N 56°03' E 016°28'510.8
2018-Feb-11 08:00N 56°06' E 016°37'510.7
2018-Feb-11 07:30N 56°09' E 016°45'  

Dump ship's entire track history